Time;durP1;ratioP1;P1;durP2;ratioP2;P2;SDS_P1;SDS_P2;PMS_P1;PMS_P2;Temp;Humidity;BMP_temperature;BMP_pressure;BME280_temperature;BME280_humidity;BME280_pressure;Samples;Min_cycle;Max_cycle;Signal;HPM_P1;HPM_P2
2021/12/02 00:01:36;;;;;;;3.45;0.70;;;;;;;0.02;71.49;99393.13;4969487;28;20051;-51
2021/12/02 00:04:04;;;;;;;4.13;0.60;;;;;;;0.02;71.51;99398.22;4967390;28;20088;-50
2021/12/02 00:06:31;;;;;;;0.93;0.40;;;;;;;-0.02;71.91;99393.06;4968227;28;20050;-50
2021/12/02 00:08:57;;;;;;;0.93;0.52;;;;;;;-0.05;71.80;99390.41;4964479;28;20055;-52
2021/12/02 00:11:24;;;;;;;0.68;0.43;;;;;;;-0.03;72.22;99395.56;4967220;28;20097;-49
2021/12/02 00:13:57;;;;;;;1.30;0.47;;;;;;;-0.06;71.99;99391.25;4969582;28;20055;-49
2021/12/02 00:16:39;;;;;;;1.00;0.32;;;;;;;-0.05;71.90;99402.28;4968236;28;20058;-54
2021/12/02 00:22:01;;;;;;;2.40;0.98;;;;;;;-0.09;72.18;99406.44;4965558;28;20466;-52
2021/12/02 00:24:34;;;;;;;1.38;0.52;;;;;;;-0.13;72.21;99408.00;4966661;28;20141;-50
2021/12/02 00:27:04;;;;;;;0.95;0.40;;;;;;;-0.12;72.22;99406.31;4968478;28;20043;-52
2021/12/02 00:29:32;;;;;;;1.20;0.88;;;;;;;-0.11;72.02;99400.41;4965947;28;20376;-52
2021/12/02 00:32:05;;;;;;;3.10;0.93;;;;;;;-0.10;72.11;99399.59;4974644;28;20149;-51
2021/12/02 00:34:33;;;;;;;5.05;1.13;;;;;;;-0.11;71.87;99402.94;4966009;28;20062;-47
2021/12/02 00:37:01;;;;;;;1.00;0.65;;;;;;;-0.10;72.22;99407.22;4982726;28;20430;-52
2021/12/02 00:39:29;;;;;;;1.75;0.88;;;;;;;-0.08;71.94;99418.31;4968784;28;20054;-50
2021/12/02 00:41:56;;;;;;;0.73;0.30;;;;;;;-0.10;71.93;99422.50;4968225;28;20062;-51
2021/12/02 00:44:22;;;;;;;1.27;0.68;;;;;;;-0.13;72.21;99422.44;4968218;28;20043;-50
2021/12/02 00:46:50;;;;;;;2.20;0.82;;;;;;;-0.14;72.14;99429.19;4968034;28;20666;-52
2021/12/02 00:49:18;;;;;;;1.55;0.68;;;;;;;-0.13;72.26;99419.88;4967135;28;20062;-51
2021/12/02 00:51:51;;;;;;;1.95;0.38;;;;;;;-0.19;72.17;99419.69;4968066;28;20050;-49
2021/12/02 00:54:19;;;;;;;4.20;1.25;;;;;;;-0.17;72.17;99424.00;4970823;28;20079;-50
2021/12/02 00:56:46;;;;;;;3.55;1.08;;;;;;;-0.19;72.44;99424.78;4971346;28;20054;-52
2021/12/02 00:59:13;;;;;;;1.98;0.82;;;;;;;-0.19;72.05;99429.88;4970123;28;20051;-49
2021/12/02 01:01:40;;;;;;;1.13;0.63;;;;;;;-0.26;72.25;99423.72;4971287;28;20110;-49
2021/12/02 01:04:10;;;;;;;0.82;0.82;;;;;;;-0.22;72.13;99427.22;4970318;28;20054;-51
2021/12/02 01:06:38;;;;;;;2.45;1.10;;;;;;;-0.21;72.08;99426.41;4970702;28;20051;-52
2021/12/02 01:09:06;;;;;;;1.10;0.60;;;;;;;-0.26;72.50;99428.81;4969301;28;20426;-50
2021/12/02 01:11:34;;;;;;;7.03;0.55;;;;;;;-0.24;72.16;99421.22;4974208;28;20054;-52
2021/12/02 01:14:03;;;;;;;1.55;0.55;;;;;;;-0.21;71.93;99428.97;4968573;28;20125;-50
2021/12/02 01:16:31;;;;;;;2.92;0.43;;;;;;;-0.19;72.13;99424.78;4969231;28;20499;-53
2021/12/02 01:19:00;;;;;;;1.50;0.93;;;;;;;-0.20;71.50;99428.13;4970963;28;20082;-53
2021/12/02 01:21:29;;;;;;;1.50;0.80;;;;;;;-0.19;71.94;99429.88;4968431;28;20061;-51
2021/12/02 01:24:01;;;;;;;2.70;0.90;;;;;;;-0.17;72.48;99439.28;4970921;28;20046;-51
2021/12/02 01:26:31;;;;;;;0.77;0.38;;;;;;;-0.15;71.61;99431.69;4973467;28;20051;-50
2021/12/02 01:28:59;;;;;;;1.92;0.75;;;;;;;-0.14;72.44;99433.41;4971401;28;20050;-46
2021/12/02 01:31:31;;;;;;;0.60;0.43;;;;;;;-0.14;72.26;99435.94;4969003;28;20078;-53
2021/12/02 01:34:01;;;;;;;0.95;0.45;;;;;;;-0.13;71.59;99436.00;4965951;28;20085;-52
2021/12/02 01:36:33;;;;;;;2.03;0.90;;;;;;;-0.10;71.52;99425.03;4967481;28;20715;-50
2021/12/02 01:39:00;;;;;;;1.25;0.57;;;;;;;-0.10;71.88;99435.22;4970398;28;20054;-48
2021/12/02 01:41:27;;;;;;;3.58;0.80;;;;;;;-0.10;71.19;99425.03;4970811;28;20561;-49
2021/12/02 01:43:54;;;;;;;2.40;1.02;;;;;;;-0.07;71.64;99424.28;4971545;28;20499;-52
2021/12/02 01:46:25;;;;;;;0.60;0.30;;;;;;;-0.10;71.71;99432.69;4979307;28;20054;-52
2021/12/02 01:49:11;;;;;;;2.15;0.57;;;;;;;-0.06;71.02;99438.75;4967932;28;20047;-54
2021/12/02 01:51:48;;;;;;;2.38;0.68;;;;;;;-0.07;71.27;99440.41;4967655;28;20054;-51
2021/12/02 01:54:18;;;;;;;2.60;0.40;;;;;;;-0.05;71.29;99436.25;4966865;28;20047;-49
2021/12/02 01:56:50;;;;;;;0.57;0.25;;;;;;;-0.11;70.82;99441.13;4970266;28;20100;-47
2021/12/02 01:59:21;;;;;;;1.00;0.50;;;;;;;-0.11;71.11;99438.59;4971065;28;20051;-47
2021/12/02 02:01:51;;;;;;;4.60;0.73;;;;;;;-0.09;70.73;99444.63;4969034;28;20051;-52
2021/12/02 02:04:20;;;;;;;4.45;0.60;;;;;;;-0.08;70.65;99443.78;4985680;28;20522;-48
2021/12/02 02:06:57;;;;;;;2.67;0.57;;;;;;;-0.08;70.87;99443.78;4968500;28;20076;-50
2021/12/02 02:09:25;;;;;;;5.32;0.47;;;;;;;-0.11;71.14;99440.28;4967645;28;20557;-50
2021/12/02 02:11:53;;;;;;;0.60;0.20;;;;;;;-0.12;70.62;99444.50;4971542;28;20046;-52
2021/12/02 02:14:21;;;;;;;3.95;0.90;;;;;;;-0.14;70.88;99441.91;4971361;28;20046;-54
2021/12/02 02:16:48;;;;;;;3.58;0.40;;;;;;;-0.10;71.01;99450.50;4971256;28;20446;-52
2021/12/02 02:19:16;;;;;;;2.80;0.43;;;;;;;-0.05;71.55;99446.44;4969346;28;20051;-53
2021/12/02 02:21:43;;;;;;;2.90;0.55;;;;;;;-0.05;71.09;99443.88;4970541;28;20055;-47
2021/12/02 02:24:13;;;;;;;4.78;0.70;;;;;;;-0.02;71.25;99445.66;4966995;28;20672;-49
2021/12/02 02:26:41;;;;;;;0.85;0.85;;;;;;;-0.05;71.28;99456.63;4968963;28;20058;-47
2021/12/02 02:29:09;;;;;;;0.25;0.15;;;;;;;-0.01;71.44;99455.88;4976051;28;20051;-50
2021/12/02 02:31:39;;;;;;;1.42;0.25;;;;;;;0.06;71.23;99450.97;4969618;28;20063;-51
2021/12/02 02:34:06;;;;;;;0.50;0.20;;;;;;;0.07;71.77;99452.72;4969759;28;20113;-50
2021/12/02 02:36:38;;;;;;;0.73;0.50;;;;;;;0.07;71.37;99452.72;4970160;28;20042;-51
2021/12/02 02:39:05;;;;;;;0.95;0.20;;;;;;;0.06;71.26;99461.16;4968524;28;20061;-50
2021/12/02 02:41:38;;;;;;;1.42;0.40;;;;;;;0.10;70.59;99457.91;4972148;28;20054;-48
2021/12/02 02:44:05;;;;;;;2.40;0.47;;;;;;;0.18;71.20;99466.63;4969641;28;20042;-50
2021/12/02 02:46:34;;;;;;;3.80;0.65;;;;;;;0.17;71.06;99467.44;4969898;28;20097;-50
2021/12/02 02:49:04;;;;;;;3.85;0.63;;;;;;;0.19;71.11;99468.38;4967275;28;20039;-53
2021/12/02 02:51:32;;;;;;;1.15;0.30;;;;;;;0.24;71.12;99466.81;4967403;28;20656;-48
2021/12/02 02:54:04;;;;;;;1.08;0.30;;;;;;;0.24;70.51;99468.50;4967020;28;20502;-53
2021/12/02 02:56:34;;;;;;;0.68;0.50;;;;;;;0.28;71.04;99474.53;4980132;28;20054;-48
2021/12/02 02:59:11;;;;;;;0.32;0.32;;;;;;;0.30;70.44;99465.28;4963989;28;20069;-50
2021/12/02 03:01:48;;;;;;;0.80;0.40;;;;;;;0.30;70.17;99472.91;4966274;28;20612;-52
2021/12/02 03:04:28;;;;;;;0.40;0.20;;;;;;;0.35;69.94;99484.09;4968049;28;20161;-53
2021/12/02 03:07:05;;;;;;;0.40;0.20;;;;;;;0.33;69.77;99488.28;4963842;28;20092;-51
2021/12/02 03:09:46;;;;;;;3.17;0.43;;;;;;;0.33;70.33;99480.63;4969126;28;20058;-48
2021/12/02 03:12:20;;;;;;;1.17;0.60;;;;;;;0.34;70.64;99483.22;4965916;28;20487;-52
2021/12/02 03:16:37;;;;;;;0.95;0.40;;;;;;;0.36;70.89;99483.28;4968331;28;20043;-53
2021/12/02 03:17:36;;;;;;;1.60;0.40;;;;;;;0.36;70.42;99478.19;4963669;28;20051;-52
2021/12/02 03:20:04;;;;;;;3.80;0.75;;;;;;;0.40;69.93;99482.53;4968475;28;20109;-48
2021/12/02 03:22:32;;;;;;;2.90;0.60;;;;;;;0.38;70.37;99479.09;4966421;28;20047;-53
2021/12/02 03:25:00;;;;;;;2.15;0.65;;;;;;;0.43;70.32;99477.53;4965177;28;20137;-52
2021/12/02 03:27:27;;;;;;;0.57;0.30;;;;;;;0.42;70.49;99472.41;4967054;28;20046;-50
2021/12/02 03:29:54;;;;;;;0.93;0.15;;;;;;;0.43;69.47;99475.00;4968010;28;20092;-49
2021/12/02 03:32:20;;;;;;;1.20;0.30;;;;;;;0.46;69.22;99467.44;4967448;28;20105;-48
2021/12/02 03:34:47;;;;;;;0.20;0.17;;;;;;;0.47;69.70;99463.22;4969537;28;20059;-49
2021/12/02 03:37:14;;;;;;;0.50;0.30;;;;;;;0.48;69.74;99470.88;4966727;28;20110;-52
2021/12/02 03:39:40;;;;;;;1.85;0.30;;;;;;;0.53;68.91;99473.56;4963673;28;20499;-51
2021/12/02 03:42:08;;;;;;;1.08;0.30;;;;;;;0.57;69.62;99470.28;4967035;28;20129;-50
2021/12/02 03:44:35;;;;;;;0.55;0.10;;;;;;;0.59;69.63;99467.78;4965929;28;20081;-54
2021/12/02 03:47:02;;;;;;;5.85;0.90;;;;;;;0.59;69.37;99467.78;4974107;28;20055;-51
2021/12/02 03:49:29;;;;;;;3.63;0.30;;;;;;;0.61;69.01;99461.06;4972468;28;20050;-50
2021/12/02 03:51:55;;;;;;;4.55;0.60;;;;;;;0.65;68.55;99447.59;4965368;28;20046;-50
2021/12/02 03:54:22;;;;;;;1.63;0.60;;;;;;;0.67;69.16;99445.09;4965706;28;20058;-52
2021/12/02 03:56:49;;;;;;;3.50;0.40;;;;;;;0.68;69.32;99442.56;4968708;28;20055;-53
2021/12/02 03:59:15;;;;;;;2.38;0.45;;;;;;;0.68;69.17;99445.13;4966650;28;20055;-52
2021/12/02 04:01:42;;;;;;;1.30;0.30;;;;;;;0.68;69.46;99452.78;4968374;28;20047;-50
2021/12/02 04:04:09;;;;;;;2.83;0.60;;;;;;;0.66;69.11;99454.41;4966716;28;20050;-53
2021/12/02 04:06:35;;;;;;;5.00;0.40;;;;;;;0.69;69.51;99453.63;4967338;28;20128;-52
2021/12/02 04:09:12;;;;;;;1.23;0.60;;;;;;;0.71;68.84;99454.53;4966440;28;20619;-54
2021/12/02 04:11:44;;;;;;;5.45;0.43;;;;;;;0.73;69.53;99458.84;4965844;28;20047;-50
2021/12/02 04:14:32;;;;;;;4.15;0.70;;;;;;;0.74;69.08;99463.13;4967937;28;20766;-51
2021/12/02 04:17:01;;;;;;;3.83;0.85;;;;;;;0.76;69.10;99468.28;4973096;28;20423;-53
2021/12/02 04:19:28;;;;;;;1.25;0.22;;;;;;;0.75;68.49;99480.13;4966545;28;20050;-50
2021/12/02 04:21:57;;;;;;;4.13;0.32;;;;;;;0.79;68.48;99485.34;4966134;28;20104;-49
2021/12/02 04:24:24;;;;;;;2.03;0.40;;;;;;;0.80;70.27;99477.72;4966717;28;20650;-50
2021/12/02 04:26:52;;;;;;;1.75;0.32;;;;;;;0.72;72.63;99472.44;4967248;28;20089;-50
2021/12/02 04:29:18;;;;;;;0.82;0.32;;;;;;;0.59;73.82;99463.56;4967849;28;20042;-47
2021/12/02 04:31:47;;;;;;;0.22;0.20;;;;;;;0.49;74.17;99470.09;4968268;28;20058;-53
2021/12/02 04:34:14;;;;;;;1.13;0.55;;;;;;;0.44;74.87;99463.97;4977681;28;20390;-50
2021/12/02 04:36:42;;;;;;;1.35;0.40;;;;;;;0.36;75.22;99475.63;4969092;28;20457;-50
2021/12/02 04:39:09;;;;;;;0.90;0.20;;;;;;;0.35;74.83;99474.78;4966170;28;20109;-54
2021/12/02 04:41:36;;;;;;;2.47;0.60;;;;;;;0.30;75.98;99478.00;4968071;28;20671;-53
2021/12/02 04:44:04;;;;;;;1.38;0.15;;;;;;;0.27;75.99;99472.81;4968083;28;20484;-52
2021/12/02 04:46:30;;;;;;;0.63;0.25;;;;;;;0.24;76.79;99466.81;4968607;28;20101;-51
2021/12/02 04:48:57;;;;;;;0.50;0.30;;;;;;;0.25;76.06;99467.69;4965586;28;20049;-51
2021/12/02 04:51:24;;;;;;;2.70;0.73;;;;;;;0.25;76.20;99468.56;4967080;28;20113;-53
2021/12/02 04:53:50;;;;;;;3.72;0.43;;;;;;;0.29;75.95;99478.81;4968599;28;20089;-54
2021/12/02 04:56:17;;;;;;;2.03;0.28;;;;;;;0.25;75.46;99478.75;4965127;28;20565;-52
2021/12/02 04:58:43;;;;;;;1.25;0.63;;;;;;;0.28;75.63;99482.19;4967914;28;20435;-51
2021/12/02 05:01:10;;;;;;;0.28;0.20;;;;;;;0.23;75.74;99490.56;4963724;28;20055;-51
2021/12/02 05:03:37;;;;;;;0.70;0.38;;;;;;;0.21;76.09;99481.16;4964147;28;20047;-48
2021/12/02 05:06:03;;;;;;;2.50;0.30;;;;;;;0.20;75.23;99482.81;4967975;28;20050;-51
2021/12/02 05:08:30;;;;;;;1.25;0.45;;;;;;;0.25;75.46;99472.78;4965804;28;20047;-51
2021/12/02 05:10:56;;;;;;;1.90;0.50;;;;;;;0.22;75.79;99483.75;4965873;28;20055;-49
2021/12/02 05:13:23;;;;;;;0.40;0.30;;;;;;;0.23;75.56;99490.56;4962244;28;21209;-52
2021/12/02 05:15:50;;;;;;;0.80;0.20;;;;;;;0.18;75.64;99481.91;4969359;28;20043;-54
2021/12/02 05:18:17;;;;;;;1.35;0.32;;;;;;;0.15;76.57;99475.84;4965301;28;20039;-49
2021/12/02 05:20:44;;;;;;;3.20;0.52;;;;;;;0.12;76.13;99481.72;4967618;28;20110;-46
2021/12/02 05:23:10;;;;;;;2.17;0.28;;;;;;;0.13;76.58;99493.63;4966546;28;20082;-53
2021/12/02 05:25:37;;;;;;;0.70;0.50;;;;;;;0.07;76.73;99488.38;4967229;28;20105;-48
2021/12/02 05:28:03;;;;;;;0.88;0.25;;;;;;;0.03;76.94;99491.63;4967627;28;20542;-51
2021/12/02 05:30:30;;;;;;;1.60;0.35;;;;;;;0.01;76.75;99491.59;4966106;28;20498;-52
2021/12/02 05:32:57;;;;;;;0.40;0.20;;;;;;;0.01;77.23;99498.34;4966156;28;20054;-51
2021/12/02 05:35:23;;;;;;;1.75;0.45;;;;;;;-0.05;76.85;99492.25;4967157;28;20057;-51
2021/12/02 05:37:50;;;;;;;0.40;0.30;;;;;;;-0.13;77.98;99496.25;4968631;28;20046;-47
2021/12/02 05:40:16;;;;;;;0.75;0.30;;;;;;;-0.15;78.02;99492.78;4970781;28;20093;-51
2021/12/02 05:42:43;;;;;;;0.63;0.30;;;;;;;-0.20;77.48;99484.13;4971200;28;20975;-54
2021/12/02 05:45:10;;;;;;;1.85;0.35;;;;;;;-0.18;77.51;99487.59;4972003;28;20107;-51
2021/12/02 05:47:36;;;;;;;2.35;0.22;;;;;;;-0.21;77.53;99485.81;4968693;28;20055;-51
2021/12/02 05:50:04;;;;;;;0.30;0.30;;;;;;;-0.24;77.89;99480.63;4971455;28;20054;-49
2021/12/02 05:52:31;;;;;;;1.98;0.30;;;;;;;-0.27;77.45;99473.75;4969500;28;20042;-53
2021/12/02 05:54:58;;;;;;;2.53;0.50;;;;;;;-0.28;77.75;99477.13;4971010;28;20118;-50
2021/12/02 05:57:25;;;;;;;0.45;0.20;;;;;;;-0.31;77.50;99469.38;4970445;28;20047;-52
2021/12/02 05:59:52;;;;;;;0.25;0.15;;;;;;;-0.30;77.29;99463.47;4970342;28;20078;-49
2021/12/02 06:02:19;;;;;;;1.88;0.50;;;;;;;-0.29;77.45;99465.22;4969714;28;20054;-50
2021/12/02 06:04:50;;;;;;;0.45;0.45;;;;;;;-0.30;77.45;99468.56;4969682;28;20061;-54
2021/12/02 06:07:18;;;;;;;1.67;0.40;;;;;;;-0.32;77.60;99472.75;4968181;28;20055;-49
2021/12/02 06:09:45;;;;;;;1.35;0.57;;;;;;;-0.33;77.50;99473.56;4967064;28;21122;-48
2021/12/02 06:12:12;;;;;;;0.63;0.63;;;;;;;-0.36;77.50;99473.47;4967916;28;20062;-50
2021/12/02 06:14:39;;;;;;;0.68;0.45;;;;;;;-0.37;77.46;99466.66;4968991;28;20503;-52
2021/12/02 06:17:06;;;;;;;0.20;0.20;;;;;;;-0.38;78.02;99474.25;4967036;28;20054;-50
2021/12/02 06:19:32;;;;;;;0.65;0.50;;;;;;;-0.38;77.43;99479.34;4966350;28;20051;-50
2021/12/02 06:21:59;;;;;;;1.25;0.45;;;;;;;-0.39;77.51;99491.19;4966045;28;20051;-48
2021/12/02 06:24:31;;;;;;;1.70;0.50;;;;;;;-0.41;77.56;99496.22;4970704;28;20051;-48
2021/12/02 06:26:58;;;;;;;0.57;0.40;;;;;;;-0.41;77.64;99492.78;4968931;28;20093;-51
2021/12/02 06:29:25;;;;;;;1.95;0.52;;;;;;;-0.42;77.70;99493.63;4967609;28;20055;-54
2021/12/02 06:31:51;;;;;;;0.30;0.10;;;;;;;-0.47;78.21;99490.06;4967784;28;20051;-53
2021/12/02 06:34:18;;;;;;;0.13;0.13;;;;;;;-0.47;77.82;99495.16;4966757;28;20105;-50
2021/12/02 06:36:44;;;;;;;2.88;0.40;;;;;;;-0.44;77.74;99500.34;4970435;28;20569;-51
2021/12/02 06:39:11;;;;;;;2.05;0.40;;;;;;;-0.42;77.42;99508.88;4968905;28;20097;-52
2021/12/02 06:41:38;;;;;;;1.80;0.57;;;;;;;-0.40;77.32;99504.72;4969685;28;20054;-53
2021/12/02 06:44:05;;;;;;;2.70;0.43;;;;;;;-0.39;77.24;99501.34;4969374;28;20479;-47
2021/12/02 06:46:32;;;;;;;1.00;0.30;;;;;;;-0.40;77.00;99507.28;4970970;28;20502;-49
2021/12/02 06:48:59;;;;;;;1.30;0.40;;;;;;;-0.42;77.16;99508.88;4969512;28;20094;-50
2021/12/02 06:51:27;;;;;;;0.70;0.30;;;;;;;-0.39;77.16;99514.06;4970224;28;20097;-50
2021/12/02 06:53:54;;;;;;;2.35;0.52;;;;;;;-0.41;77.11;99520.78;4978068;28;20113;-54
2021/12/02 06:56:40;;;;;;;1.77;0.32;;;;;;;-0.41;77.19;99530.97;4969189;28;20491;-49
2021/12/02 06:59:07;;;;;;;2.80;0.65;;;;;;;-0.42;77.01;99529.25;4969827;28;20062;-47
2021/12/02 07:01:34;;;;;;;1.58;0.82;;;;;;;-0.42;76.90;99529.25;4970048;28;20050;-49
2021/12/02 07:04:01;;;;;;;1.33;0.60;;;;;;;-0.40;76.87;99527.63;4970260;28;20089;-51
2021/12/02 07:06:28;;;;;;;0.52;0.20;;;;;;;-0.45;76.91;99530.00;4968204;28;20495;-48
2021/12/02 07:08:54;;;;;;;0.70;0.70;;;;;;;-0.43;77.09;99535.16;4968950;28;20051;-50
2021/12/02 07:11:21;;;;;;;0.55;0.30;;;;;;;-0.45;76.75;99535.09;4969934;28;20058;-49
2021/12/02 07:13:49;;;;;;;3.70;0.25;;;;;;;-0.49;77.11;99537.47;4967243;28;20113;-49
2021/12/02 07:16:16;;;;;;;0.93;0.32;;;;;;;-0.47;76.80;99538.41;4969894;28;20050;-53
2021/12/02 07:18:47;;;;;;;1.15;0.40;;;;;;;-0.49;76.75;99537.47;4969644;28;20065;-50
2021/12/02 07:21:14;;;;;;;3.80;0.57;;;;;;;-0.51;76.73;99534.88;4966273;28;20077;-50
2021/12/02 07:23:40;;;;;;;0.70;0.40;;;;;;;-0.50;76.51;99540.84;4969248;28;20097;-51
2021/12/02 07:26:07;;;;;;;1.88;0.40;;;;;;;-0.53;76.46;99527.19;4970207;28;20058;-49
2021/12/02 07:28:36;;;;;;;1.70;0.93;;;;;;;-0.50;76.44;99533.22;4965664;28;20051;-48
2021/12/02 07:31:05;;;;;;;0.52;0.30;;;;;;;-0.54;76.05;99533.09;4966757;28;20515;-47
2021/12/02 07:33:36;;;;;;;4.93;0.60;;;;;;;-0.54;75.71;99533.09;4968217;28;20053;-46
2021/12/02 07:36:04;;;;;;;1.27;0.40;;;;;;;-0.53;75.75;99547.53;4966594;28;20495;-50
2021/12/02 07:38:31;;;;;;;1.10;0.65;;;;;;;-0.56;75.84;99544.91;4969896;28;20113;-51
2021/12/02 07:41:03;;;;;;;5.20;1.17;;;;;;;-0.57;75.61;99550.81;4964409;28;20383;-47
2021/12/02 07:43:33;;;;;;;2.25;0.20;;;;;;;-0.60;75.43;99581.25;4968883;28;20129;-50
2021/12/02 07:46:01;;;;;;;4.97;0.55;;;;;;;-0.59;75.74;99577.00;4967876;28;20434;-53
2021/12/02 07:48:29;;;;;;;1.20;0.47;;;;;;;-0.62;75.88;99572.69;4971140;28;20046;-47
2021/12/02 07:51:00;;;;;;;1.55;0.30;;;;;;;-0.63;75.01;99586.22;4965459;28;20042;-49
2021/12/02 07:53:28;;;;;;;0.52;0.45;;;;;;;-0.66;75.83;99593.72;4963830;28;20047;-49
2021/12/02 07:55:56;;;;;;;0.73;0.32;;;;;;;-0.67;75.33;99589.47;4966606;28;20105;-49
2021/12/02 07:58:24;;;;;;;0.55;0.50;;;;;;;-0.66;75.08;99601.38;4965925;28;20064;-50
2021/12/02 08:00:51;;;;;;;1.15;0.22;;;;;;;-0.65;74.88;99592.91;4969100;28;20042;-51
2021/12/02 08:03:19;;;;;;;1.85;0.50;;;;;;;-0.65;74.73;99592.91;4966769;28;20057;-50
2021/12/02 08:05:46;;;;;;;2.10;0.90;;;;;;;-0.62;74.80;99598.13;4961580;28;20047;-48
2021/12/02 08:08:13;;;;;;;0.98;0.32;;;;;;;-0.59;74.06;99593.16;4965783;28;20078;-50
2021/12/02 08:10:39;;;;;;;6.30;0.47;;;;;;;-0.50;73.88;99594.28;4966398;28;20055;-49
2021/12/02 08:13:06;;;;;;;0.93;0.40;;;;;;;-0.41;73.09;99597.13;4965789;28;20101;-49
2021/12/02 08:15:33;;;;;;;0.95;0.80;;;;;;;-0.24;72.85;99594.31;4969007;28;20420;-50
2021/12/02 08:18:00;;;;;;;1.55;0.55;;;;;;;-0.09;72.16;99602.47;4964169;28;20450;-49
2021/12/02 08:20:28;;;;;;;1.73;0.45;;;;;;;0.16;71.36;99610.91;4963160;28;20063;-49
2021/12/02 08:22:55;;;;;;;2.08;0.57;;;;;;;0.36;70.74;99609.00;4969837;28;20039;-47
2021/12/02 08:25:22;;;;;;;2.95;0.45;;;;;;;0.60;69.38;99617.34;4964239;28;20062;-50
2021/12/02 08:27:50;;;;;;;0.63;0.20;;;;;;;0.81;69.58;99616.28;4964575;28;20058;-50
2021/12/02 08:30:19;;;;;;;1.25;0.32;;;;;;;1.15;68.44;99617.28;4962696;28;20105;-50
2021/12/02 08:32:46;;;;;;;0.50;0.30;;;;;;;1.44;66.37;99619.75;4961698;28;20114;-52
2021/12/02 08:35:14;;;;;;;1.73;0.30;;;;;;;1.74;66.05;99628.19;4963078;28;20065;-49
2021/12/02 08:37:45;;;;;;;1.05;0.30;;;;;;;2.15;63.96;99635.19;4965588;28;20058;-48
2021/12/02 08:40:18;;;;;;;0.55;0.22;;;;;;;2.49;62.97;99641.13;4968504;28;20698;-51
2021/12/02 08:42:47;;;;;;;0.55;0.10;;;;;;;2.77;62.75;99651.16;4960763;28;20111;-51
2021/12/02 08:45:15;;;;;;;0.40;0.30;;;;;;;2.91;60.72;99664.25;4966268;28;20506;-53
2021/12/02 08:47:44;;;;;;;0.77;0.35;;;;;;;2.92;61.75;99671.06;4962709;28;20093;-48
2021/12/02 08:50:14;;;;;;;0.40;0.20;;;;;;;3.00;62.17;99669.53;4960231;28;20051;-47
2021/12/02 08:52:41;;;;;;;1.17;0.55;;;;;;;3.30;61.65;99673.59;4962424;28;20117;-53
2021/12/02 08:55:08;;;;;;;1.30;0.77;;;;;;;3.70;60.80;99682.91;4965301;28;20051;-52
2021/12/02 08:57:45;;;;;;;2.17;0.70;;;;;;;4.11;59.23;99687.09;4963088;28;20046;-52
2021/12/02 09:00:14;;;;;;;3.03;1.05;;;;;;;4.73;58.41;99697.53;4965372;28;20085;-47
2021/12/02 09:02:41;;;;;;;1.77;0.40;;;;;;;5.24;58.73;99707.66;4964211;28;20043;-49
2021/12/02 09:05:08;;;;;;;1.98;0.60;;;;;;;5.79;57.81;99706.59;4961343;28;20062;-48
2021/12/02 09:07:35;;;;;;;1.02;0.30;;;;;;;6.06;53.29;99725.78;4965667;28;20615;-50
2021/12/02 09:10:04;;;;;;;2.33;0.73;;;;;;;6.08;54.39;99723.22;4965181;28;20059;-51
2021/12/02 09:12:32;;;;;;;3.08;0.50;;;;;;;6.02;53.06;99735.13;4973550;28;20454;-53
2021/12/02 09:14:59;;;;;;;2.67;0.70;;;;;;;5.98;53.95;99732.53;4969729;28;20105;-48
2021/12/02 09:17:25;;;;;;;3.53;0.73;;;;;;;6.19;53.90;99731.94;4969522;28;20099;-54
2021/12/02 09:19:52;;;;;;;1.20;0.60;;;;;;;6.30;51.12;99734.59;4967426;28;20049;-49
2021/12/02 09:22:19;;;;;;;3.25;0.50;;;;;;;6.62;52.58;99735.75;4967423;28;20051;-52
2021/12/02 09:24:45;;;;;;;1.95;0.60;;;;;;;6.78;49.43;99731.56;4967853;28;20054;-52
2021/12/02 09:27:12;;;;;;;2.65;0.55;;;;;;;7.03;48.25;99736.91;4966378;28;20051;-52
2021/12/02 09:29:39;;;;;;;0.75;0.38;;;;;;;7.43;50.64;99752.59;4970815;28;20478;-52
2021/12/02 09:32:08;;;;;;;1.48;0.45;;;;;;;7.71;49.43;99750.13;4966371;28;20051;-54
2021/12/02 09:34:34;;;;;;;1.13;0.52;;;;;;;8.00;48.59;99760.59;4968777;28;20246;-52
2021/12/02 09:37:01;;;;;;;2.75;0.65;;;;;;;8.37;48.48;99758.06;4966325;28;20050;-51
2021/12/02 09:39:33;;;;;;;1.08;0.73;;;;;;;8.71;48.30;99755.56;4962397;28;20054;-49
2021/12/02 09:42:02;;;;;;;2.92;0.88;;;;;;;9.21;48.63;99773.59;4964329;28;20615;-52
2021/12/02 09:44:47;;;;;;;3.13;0.43;;;;;;;9.42;47.99;99766.66;4965367;28;20092;-51
2021/12/02 09:47:16;;;;;;;1.23;0.30;;;;;;;9.52;47.32;99765.78;4966512;28;20054;-52
2021/12/02 09:49:43;;;;;;;2.55;1.05;;;;;;;9.11;46.83;99772.75;4960885;28;20135;-51
2021/12/02 09:52:13;;;;;;;2.08;0.52;;;;;;;9.09;46.34;99765.88;4954211;28;20059;-52
2021/12/02 09:54:44;;;;;;;1.55;1.02;;;;;;;9.29;46.22;99762.41;4957033;28;20439;-50
2021/12/02 09:57:14;;;;;;;2.15;0.50;;;;;;;9.25;45.17;99767.56;4955974;28;20055;-50
2021/12/02 09:59:50;;;;;;;3.67;0.50;;;;;;;9.42;45.55;99777.00;4965692;28;20050;-51
2021/12/02 10:02:20;;;;;;;1.50;0.68;;;;;;;9.50;44.91;99772.66;4960398;28;20055;-50
2021/12/02 10:04:54;;;;;;;2.72;0.60;;;;;;;9.69;44.96;99784.72;4969435;28;20082;-54
2021/12/02 10:07:32;;;;;;;1.92;0.68;;;;;;;9.80;44.34;99787.25;4966928;28;20061;-50
2021/12/02 10:10:09;;;;;;;1.98;0.70;;;;;;;9.76;43.67;99782.06;4978832;28;20047;-50
2021/12/02 10:12:40;;;;;;;1.95;0.70;;;;;;;9.80;43.60;99802.75;4982609;28;20054;-49
2021/12/02 10:15:12;;;;;;;5.35;0.45;;;;;;;9.84;43.49;99805.34;4964662;28;20054;-50
2021/12/02 10:17:45;;;;;;;2.15;0.55;;;;;;;10.05;43.42;99802.66;4966214;28;20688;-49
2021/12/02 10:20:23;;;;;;;0.85;0.45;;;;;;;9.97;42.61;99798.38;4970534;28;20050;-50
2021/12/02 10:23:15;;;;;;;2.05;0.50;;;;;;;9.83;42.33;99797.59;4967196;28;20185;-49
2021/12/02 10:25:55;;;;;;;1.55;0.40;;;;;;;9.70;42.55;99800.22;4969524;28;20061;-51
2021/12/02 10:28:22;;;;;;;2.78;0.93;;;;;;;9.54;43.34;99812.31;4970284;28;20117;-53
2021/12/02 10:30:53;;;;;;;0.85;0.20;;;;;;;9.23;43.38;99802.88;4969038;28;20050;-52
2021/12/02 10:33:42;;;;;;;1.98;0.25;;;;;;;8.77;43.67;99803.75;4982243;28;20047;-50
2021/12/02 10:36:28;;;;;;;0.68;0.43;;;;;;;8.11;44.42;99802.75;4963523;28;20044;-52
2021/12/02 10:38:58;;;;;;;1.38;0.60;;;;;;;7.74;45.11;99802.59;4965632;28;20074;-52
2021/12/02 10:41:28;;;;;;;2.80;0.20;;;;;;;7.25;47.10;99801.44;4965540;28;20063;-55
2021/12/02 10:44:18;;;;;;;1.25;0.85;;;;;;;6.56;47.55;99808.59;4970520;28;20427;-52
2021/12/02 10:47:06;;;;;;;2.10;0.68;;;;;;;6.29;48.53;99810.03;4967155;28;20759;-51
2021/12/02 10:49:39;;;;;;;3.00;1.15;;;;;;;6.13;49.57;99804.72;4968320;28;20098;-52
2021/12/02 10:52:09;;;;;;;1.80;0.60;;;;;;;5.83;49.54;99797.44;4969071;28;20042;-53
2021/12/02 10:54:39;;;;;;;5.60;0.40;;;;;;;5.34;51.49;99799.38;4968389;28;20058;-50
2021/12/02 10:57:13;;;;;;;4.03;1.30;;;;;;;5.21;51.87;99797.47;4981164;28;20059;-49
2021/12/02 10:59:45;;;;;;;1.30;0.77;;;;;;;5.00;52.81;99806.59;4966112;28;20043;-53
2021/12/02 11:02:37;;;;;;;1.27;0.75;;;;;;;4.70;53.35;99797.53;4968028;28;20055;-55
2021/12/02 11:05:08;;;;;;;0.68;0.50;;;;;;;4.61;54.05;99809.34;4979384;28;20387;-52
2021/12/02 11:07:39;;;;;;;2.15;0.40;;;;;;;4.51;55.18;99802.31;4966055;28;20110;-53
2021/12/02 11:10:11;;;;;;;1.92;0.55;;;;;;;4.52;54.81;99809.19;4963552;28;20113;-52
2021/12/02 11:12:41;;;;;;;1.20;0.60;;;;;;;4.61;55.09;99811.91;4965882;28;20054;-50
2021/12/02 11:15:17;;;;;;;3.05;0.50;;;;;;;4.45;55.12;99817.59;4962741;28;20089;-52
2021/12/02 11:17:47;;;;;;;0.68;0.55;;;;;;;4.31;55.88;99815.66;4963402;28;20053;-54
2021/12/02 11:20:22;;;;;;;1.75;0.55;;;;;;;4.24;56.49;99813.78;4964130;28;20125;-52
2021/12/02 11:22:54;;;;;;;1.30;0.13;;;;;;;4.09;56.60;99804.97;4969314;28;20109;-53
2021/12/02 11:25:22;;;;;;;1.98;0.30;;;;;;;4.29;56.40;99819.03;4964330;28;20062;-52
2021/12/02 11:27:50;;;;;;;2.80;0.52;;;;;;;4.25;56.25;99815.50;4968437;28;20451;-52
2021/12/02 11:30:21;;;;;;;3.58;1.08;;;;;;;4.25;55.95;99810.38;4967216;28;20102;-51
2021/12/02 11:32:56;;;;;;;2.97;0.38;;;;;;;4.14;57.14;99801.63;4967464;28;20054;-54
2021/12/02 11:35:32;;;;;;;7.35;1.95;;;;;;;4.05;57.11;99787.78;4962522;28;20530;-52
2021/12/02 11:38:06;;;;;;;1.17;0.52;;;;;;;4.08;57.40;99785.28;4965862;28;20042;-53
2021/12/02 11:40:38;;;;;;;6.88;2.05;;;;;;;4.02;57.10;99792.84;4966183;28;20039;-55
2021/12/02 11:43:07;;;;;;;1.23;0.63;;;;;;;3.95;57.78;99793.59;4965826;28;20059;-51
2021/12/02 11:45:43;;;;;;;0.90;0.43;;;;;;;3.85;57.98;99780.56;4967238;28;20054;-51
2021/12/02 11:48:11;;;;;;;4.13;0.75;;;;;;;3.78;58.71;99783.00;4968962;28;20051;-55
2021/12/02 11:50:38;;;;;;;1.38;0.38;;;;;;;3.67;58.80;99777.63;4965658;28;20070;-54
2021/12/02 11:53:05;;;;;;;0.50;0.40;;;;;;;3.62;59.29;99786.91;4969737;28;21440;-56